Time;durP1;ratioP1;P1;durP2;ratioP2;P2;SDS_P1;SDS_P2;PMS_P1;PMS_P2;Temp;Humidity;BMP_temperature;BMP_pressure;BME280_temperature;BME280_humidity;BME280_pressure;Samples;Min_cycle;Max_cycle;Signal;HPM_P1;HPM_P2
2023/09/04 00:00:56;;;;;;;2.17;1.70;;;;;;;;;;2078478;28;20708;-70
2023/09/04 00:02:15;;;;;;;2.30;2.10;;;;;;;;;;2076445;28;20018;-70
2023/09/04 00:03:34;;;;;;;3.25;2.30;;;;;;;;;;2077453;28;20132;-71
2023/09/04 00:04:53;;;;;;;2.33;2.13;;;;;;;;;;2078617;28;20097;-70
2023/09/04 00:06:12;;;;;;;2.97;2.10;;;;;;;;;;2077550;28;20101;-68
2023/09/04 00:07:31;;;;;;;2.05;1.70;;;;;;;;;;2079060;28;20398;-70
2023/09/04 00:08:50;;;;;;;3.38;2.45;;;;;;;;;;2079014;28;20034;-67
2023/09/04 00:10:09;;;;;;;2.65;2.13;;;;;;;;;;2077530;28;20056;-66
2023/09/04 00:11:28;;;;;;;2.97;2.05;;;;;;;;;;2077747;28;20030;-72
2023/09/04 00:12:47;;;;;;;2.67;2.20;;;;;;;;;;2078071;28;20464;-71
2023/09/04 00:14:06;;;;;;;6.50;2.20;;;;;;;;;;2076750;28;20030;-71
2023/09/04 00:15:25;;;;;;;2.97;1.90;;;;;;;;;;2077135;28;20022;-70
2023/09/04 00:16:44;;;;;;;3.00;2.45;;;;;;;;;;2078463;28;20432;-67
2023/09/04 00:18:04;;;;;;;2.35;2.13;;;;;;;;;;2076742;28;20470;-71
2023/09/04 00:19:23;;;;;;;3.22;2.38;;;;;;;;;;2077329;28;20468;-71
2023/09/04 00:20:42;;;;;;;2.75;1.90;;;;;;;;;;2077905;28;20018;-71
2023/09/04 00:22:01;;;;;;;2.65;2.30;;;;;;;;;;2077024;28;20022;-69
2023/09/04 00:23:20;;;;;;;2.78;2.10;;;;;;;;;;2081286;28;20045;-70
2023/09/04 00:24:39;;;;;;;2.13;2.03;;;;;;;;;;2076785;28;20498;-70
2023/09/04 00:25:57;;;;;;;3.65;2.22;;;;;;;;;;2074988;28;20037;-70
2023/09/04 00:27:19;;;;;;;3.20;2.10;;;;;;;;;;2078548;28;20076;-70
2023/09/04 00:28:38;;;;;;;3.00;2.08;;;;;;;;;;2076187;28;20431;-70
2023/09/04 00:29:57;;;;;;;3.53;1.75;;;;;;;;;;2075440;28;20030;-69
2023/09/04 00:31:16;;;;;;;2.08;1.98;;;;;;;;;;2080491;28;20026;-69
2023/09/04 00:32:35;;;;;;;2.10;1.90;;;;;;;;;;2077542;28;20034;-69
2023/09/04 00:33:55;;;;;;;3.47;2.20;;;;;;;;;;2074645;28;20037;-70
2023/09/04 00:35:14;;;;;;;4.22;2.15;;;;;;;;;;2079966;28;20029;-69
2023/09/04 00:36:33;;;;;;;2.95;1.88;;;;;;;;;;2073851;28;20034;-69
2023/09/04 00:37:52;;;;;;;3.53;2.53;;;;;;;;;;2075742;28;20029;-69
2023/09/04 00:39:11;;;;;;;3.22;1.90;;;;;;;;;;2075284;28;20021;-71
2023/09/04 00:40:30;;;;;;;1.73;1.63;;;;;;;;;;2076136;28;20378;-70
2023/09/04 00:41:49;;;;;;;3.83;1.67;;;;;;;;;;2078656;28;20029;-66
2023/09/04 00:43:07;;;;;;;2.50;1.60;;;;;;;;;;2078479;28;20346;-71
2023/09/04 00:44:26;;;;;;;2.30;2.10;;;;;;;;;;2079157;28;20026;-73
2023/09/04 00:45:45;;;;;;;6.15;1.85;;;;;;;;;;2075555;28;20064;-69
2023/09/04 00:47:05;;;;;;;3.50;1.90;;;;;;;;;;2078125;28;20037;-71
2023/09/04 00:48:24;;;;;;;8.30;2.13;;;;;;;;;;2074315;28;20029;-69
2023/09/04 00:49:44;;;;;;;2.60;2.13;;;;;;;;;;2077284;28;20021;-70
2023/09/04 00:51:03;;;;;;;2.97;2.13;;;;;;;;;;2077428;28;20501;-70
2023/09/04 00:52:23;;;;;;;2.53;2.03;;;;;;;;;;2076064;28;20026;-70
2023/09/04 00:53:42;;;;;;;4.28;2.05;;;;;;;;;;2074652;28;20034;-66
2023/09/04 00:55:03;;;;;;;3.90;1.98;;;;;;;;;;2077878;28;20490;-69
2023/09/04 00:56:23;;;;;;;3.58;2.28;;;;;;;;;;2075213;28;20490;-67
2023/09/04 00:57:42;;;;;;;2.10;1.90;;;;;;;;;;2073402;28;21759;-68
2023/09/04 00:59:01;;;;;;;2.20;1.92;;;;;;;;;;2075384;28;20059;-66
2023/09/04 01:00:22;;;;;;;2.47;1.92;;;;;;;;;;2073160;28;20109;-69
2023/09/04 01:01:41;;;;;;;2.33;2.13;;;;;;;;;;2078036;28;20029;-69
2023/09/04 01:03:02;;;;;;;3.20;2.22;;;;;;;;;;2077871;28;20029;-69
2023/09/04 01:04:21;;;;;;;4.93;2.33;;;;;;;;;;2077335;28;20037;-73
2023/09/04 01:05:41;;;;;;;4.40;2.10;;;;;;;;;;2078296;28;20116;-70
2023/09/04 01:07:00;;;;;;;2.83;1.95;;;;;;;;;;2077231;28;20113;-67
2023/09/04 01:08:19;;;;;;;2.60;2.40;;;;;;;;;;2075569;28;20097;-69
2023/09/04 01:09:38;;;;;;;3.22;2.20;;;;;;;;;;2079835;28;20502;-70
2023/09/04 01:11:00;;;;;;;4.38;1.83;;;;;;;;;;2079160;28;20490;-70
2023/09/04 01:12:22;;;;;;;3.50;2.22;;;;;;;;;;2075137;28;20049;-70
2023/09/04 01:13:49;;;;;;;3.03;2.00;;;;;;;;;;2077451;28;20060;-70
2023/09/04 01:15:09;;;;;;;2.25;2.08;;;;;;;;;;2076569;28;20116;-69
2023/09/04 01:16:28;;;;;;;3.40;2.10;;;;;;;;;;2076772;28;20033;-70
2023/09/04 01:17:47;;;;;;;3.08;2.20;;;;;;;;;;2075330;28;20112;-70
2023/09/04 01:19:06;;;;;;;5.90;2.50;;;;;;;;;;2073353;28;20566;-70
2023/09/04 01:20:29;;;;;;;5.88;2.10;;;;;;;;;;2075024;28;20446;-69
2023/09/04 01:21:48;;;;;;;;;;;;;;;;;;2077206;28;20034;-69
2023/09/04 01:23:08;;;;;;;3.22;2.20;;;;;;;;;;2078783;28;19960;-70
2023/09/04 01:24:27;;;;;;;3.20;2.33;;;;;;;;;;2077150;28;21194;-69
2023/09/04 01:25:59;;;;;;;2.33;2.15;;;;;;;;;;2066975;28;20418;-70
2023/09/04 01:27:27;;;;;;;4.18;2.30;;;;;;;;;;2076800;28;20132;-68
2023/09/04 01:29:02;;;;;;;6.40;2.50;;;;;;;;;;2075810;28;20061;-69
2023/09/04 01:30:33;;;;;;;2.67;2.20;;;;;;;;;;2074010;28;20029;-69
2023/09/04 01:32:07;;;;;;;4.47;2.53;;;;;;;;;;2077684;28;20037;-70
2023/09/04 01:33:28;;;;;;;3.88;2.35;;;;;;;;;;2075502;28;20432;-69
2023/09/04 01:34:48;;;;;;;2.22;2.10;;;;;;;;;;2067527;28;20026;-70
2023/09/04 01:36:10;;;;;;;7.75;2.17;;;;;;;;;;2066437;28;20029;-70
2023/09/04 01:37:29;;;;;;;2.72;2.30;;;;;;;;;;2074697;28;20042;-67
2023/09/04 01:38:49;;;;;;;2.90;2.60;;;;;;;;;;2078225;28;20429;-69
2023/09/04 01:40:08;;;;;;;2.60;2.20;;;;;;;;;;2076860;28;20021;-69
2023/09/04 01:41:27;;;;;;;3.30;2.53;;;;;;;;;;2078106;28;20429;-69
2023/09/04 01:42:46;;;;;;;3.25;2.45;;;;;;;;;;2075483;28;20589;-70
2023/09/04 01:44:08;;;;;;;3.28;2.28;;;;;;;;;;2074941;28;20602;-69
2023/09/04 01:45:27;;;;;;;2.40;2.20;;;;;;;;;;2076261;28;20029;-70
2023/09/04 01:46:46;;;;;;;2.47;2.28;;;;;;;;;;2074656;28;20098;-70
2023/09/04 01:48:05;;;;;;;3.55;2.80;;;;;;;;;;2074728;28;20708;-69
2023/09/04 01:49:24;;;;;;;5.13;2.60;;;;;;;;;;2078343;28;20029;-66
2023/09/04 01:50:43;;;;;;;2.72;2.53;;;;;;;;;;2067304;28;20033;-69
2023/09/04 01:52:02;;;;;;;4.10;2.50;;;;;;;;;;2069898;28;20033;-69
2023/09/04 01:53:22;;;;;;;7.25;2.42;;;;;;;;;;2076850;28;20284;-69
2023/09/04 01:54:41;;;;;;;8.30;2.70;;;;;;;;;;2073129;28;20164;-69
2023/09/04 01:55:59;;;;;;;2.72;2.53;;;;;;;;;;2076973;28;20037;-70
2023/09/04 01:57:19;;;;;;;4.15;2.95;;;;;;;;;;2074493;28;20026;-69
2023/09/04 01:58:37;;;;;;;4.78;2.30;;;;;;;;;;2072771;28;20426;-68
2023/09/04 01:59:56;;;;;;;3.90;2.53;;;;;;;;;;2071005;28;20072;-69
2023/09/04 02:01:15;;;;;;;3.20;2.55;;;;;;;;;;2074936;28;20483;-65
2023/09/04 02:02:34;;;;;;;4.03;2.65;;;;;;;;;;2077058;28;20156;-68
2023/09/04 02:03:54;;;;;;;3.17;2.50;;;;;;;;;;2076920;28;20029;-70
2023/09/04 02:05:13;;;;;;;2.55;2.35;;;;;;;;;;2077027;28;20376;-70
2023/09/04 02:06:32;;;;;;;6.32;2.47;;;;;;;;;;2072911;28;20033;-70
2023/09/04 02:07:51;;;;;;;3.95;2.42;;;;;;;;;;2074857;28;20030;-67
2023/09/04 02:09:10;;;;;;;3.70;2.53;;;;;;;;;;2077230;28;20490;-70
2023/09/04 02:10:33;;;;;;;3.63;2.63;;;;;;;;;;2070676;28;20041;-71
2023/09/04 02:11:52;;;;;;;4.43;2.72;;;;;;;;;;2073953;28;20550;-71
2023/09/04 02:13:11;;;;;;;4.45;2.40;;;;;;;;;;2078519;28;20034;-70
2023/09/04 02:14:31;;;;;;;5.60;2.63;;;;;;;;;;2074787;28;20835;-70
2023/09/04 02:15:50;;;;;;;5.88;2.28;;;;;;;;;;2076284;28;20390;-70
2023/09/04 02:17:09;;;;;;;6.07;2.80;;;;;;;;;;2078077;28;20029;-70
2023/09/04 02:18:28;;;;;;;5.00;2.85;;;;;;;;;;2074711;28;20030;-69
2023/09/04 02:19:47;;;;;;;4.15;2.63;;;;;;;;;;2077757;28;20049;-71
2023/09/04 02:21:07;;;;;;;2.65;2.45;;;;;;;;;;2074647;28;20030;-69
2023/09/04 02:22:26;;;;;;;3.78;2.70;;;;;;;;;;2071727;28;20038;-70
2023/09/04 02:23:46;;;;;;;3.60;2.70;;;;;;;;;;2076617;28;20486;-69
2023/09/04 02:25:05;;;;;;;2.92;2.65;;;;;;;;;;2075424;28;20029;-69
2023/09/04 02:26:24;;;;;;;7.20;2.50;;;;;;;;;;2074506;28;20112;-70
2023/09/04 02:27:43;;;;;;;3.50;3.20;;;;;;;;;;2073214;28;20112;-68
2023/09/04 02:29:02;;;;;;;3.22;2.30;;;;;;;;;;2076753;28;20021;-69
2023/09/04 02:30:21;;;;;;;3.88;2.40;;;;;;;;;;2074940;28;20373;-72
2023/09/04 02:31:40;;;;;;;5.25;2.63;;;;;;;;;;2078971;28;20112;-67
2023/09/04 02:33:00;;;;;;;8.25;2.55;;;;;;;;;;2063163;28;20030;-70
2023/09/04 02:34:19;;;;;;;6.60;2.58;;;;;;;;;;2070629;28;20061;-66
2023/09/04 02:35:38;;;;;;;4.97;2.97;;;;;;;;;;2077675;28;20030;-65
2023/09/04 02:36:58;;;;;;;4.05;2.78;;;;;;;;;;2073616;28;20446;-69
2023/09/04 02:38:19;;;;;;;3.65;2.65;;;;;;;;;;2075538;28;20037;-69
2023/09/04 02:39:38;;;;;;;4.57;2.50;;;;;;;;;;2076810;28;20030;-69
2023/09/04 02:40:57;;;;;;;4.15;2.50;;;;;;;;;;2079031;28;20498;-66
2023/09/04 02:42:16;;;;;;;5.30;2.83;;;;;;;;;;2075178;28;20482;-69
2023/09/04 02:43:35;;;;;;;4.70;2.47;;;;;;;;;;2079717;28;20026;-69
2023/09/04 02:44:54;;;;;;;4.72;2.50;;;;;;;;;;2077935;28;20030;-72
2023/09/04 02:46:13;;;;;;;8.60;2.35;;;;;;;;;;2078634;28;20112;-69
2023/09/04 02:47:32;;;;;;;7.93;2.67;;;;;;;;;;2079796;28;20037;-70
2023/09/04 02:48:51;;;;;;;4.97;2.38;;;;;;;;;;2079477;28;20053;-69
2023/09/04 02:50:10;;;;;;;3.65;2.63;;;;;;;;;;2074648;28;20383;-65
2023/09/04 02:51:29;;;;;;;3.53;2.42;;;;;;;;;;2078992;28;20030;-70
2023/09/04 02:52:48;;;;;;;2.65;2.45;;;;;;;;;;2077710;28;20029;-71
2023/09/04 02:54:08;;;;;;;8.27;2.85;;;;;;;;;;2075575;28;20029;-70
2023/09/04 02:55:27;;;;;;;2.60;2.40;;;;;;;;;;2079519;28;20053;-70
2023/09/04 02:56:46;;;;;;;6.32;2.83;;;;;;;;;;2079025;28;20026;-70
2023/09/04 02:58:05;;;;;;;4.25;2.42;;;;;;;;;;2076587;28;20056;-67
2023/09/04 02:59:24;;;;;;;4.57;2.83;;;;;;;;;;2077472;28;20044;-69
2023/09/04 03:00:44;;;;;;;2.58;2.38;;;;;;;;;;2079742;28;20517;-70
2023/09/04 03:02:04;;;;;;;4.20;2.45;;;;;;;;;;2069639;28;20037;-68
2023/09/04 03:03:23;;;;;;;4.05;2.80;;;;;;;;;;2075728;28;20037;-70
2023/09/04 03:04:42;;;;;;;2.83;2.60;;;;;;;;;;2077598;28;20096;-70
2023/09/04 03:06:08;;;;;;;3.05;2.75;;;;;;;;;;2081621;28;20597;-70
2023/09/04 03:07:27;;;;;;;3.67;2.78;;;;;;;;;;2080794;28;20025;-70
2023/09/04 03:08:46;;;;;;;6.32;2.92;;;;;;;;;;2079346;28;20025;-69
2023/09/04 03:10:05;;;;;;;4.63;2.90;;;;;;;;;;2080325;28;20030;-70
2023/09/04 03:11:24;;;;;;;8.00;3.22;;;;;;;;;;2080431;28;20022;-70
2023/09/04 03:12:43;;;;;;;6.10;3.17;;;;;;;;;;2075091;28;20127;-70
2023/09/04 03:14:02;;;;;;;4.20;2.70;;;;;;;;;;2075953;28;20029;-69
2023/09/04 03:15:21;;;;;;;4.78;3.00;;;;;;;;;;2078644;28;20022;-67
2023/09/04 03:16:40;;;;;;;3.92;2.60;;;;;;;;;;2076838;28;20433;-71
2023/09/04 03:17:59;;;;;;;4.97;2.75;;;;;;;;;;2077690;28;20029;-70
2023/09/04 03:19:18;;;;;;;6.30;2.83;;;;;;;;;;2077008;28;20022;-69
2023/09/04 03:20:37;;;;;;;3.30;3.00;;;;;;;;;;2076358;28;20478;-70
2023/09/04 03:21:57;;;;;;;4.72;2.95;;;;;;;;;;2069966;28;20030;-66
2023/09/04 03:23:15;;;;;;;4.88;3.08;;;;;;;;;;2078345;28;20041;-69
2023/09/04 03:24:34;;;;;;;5.57;3.22;;;;;;;;;;2070458;28;20041;-70
2023/09/04 03:25:53;;;;;;;4.20;2.90;;;;;;;;;;2074928;28;20022;-67
2023/09/04 03:27:12;;;;;;;10.88;3.40;;;;;;;;;;2069233;28;20029;-70
2023/09/04 03:28:31;;;;;;;6.28;3.15;;;;;;;;;;2075670;28;20136;-66
2023/09/04 03:29:50;;;;;;;7.22;3.17;;;;;;;;;;2077585;28;20037;-72
2023/09/04 03:31:17;;;;;;;6.35;3.03;;;;;;;;;;2079081;28;20029;-71
2023/09/04 03:32:35;;;;;;;4.50;3.33;;;;;;;;;;2067347;28;20411;-72
2023/09/04 03:33:54;;;;;;;4.80;3.22;;;;;;;;;;2074363;28;20421;-70
2023/09/04 03:35:16;;;;;;;6.28;3.15;;;;;;;;;;2075560;28;20033;-66
2023/09/04 03:36:36;;;;;;;5.28;2.92;;;;;;;;;;2075670;28;20485;-72
2023/09/04 03:37:55;;;;;;;4.75;3.00;;;;;;;;;;2078500;28;20194;-70
2023/09/04 03:39:14;;;;;;;4.72;2.80;;;;;;;;;;2077135;28;20109;-70
2023/09/04 03:40:33;;;;;;;3.65;3.10;;;;;;;;;;2076484;28;20034;-70
2023/09/04 03:41:52;;;;;;;5.63;3.13;;;;;;;;;;2070425;28;20078;-68
2023/09/04 03:43:10;;;;;;;8.55;3.50;;;;;;;;;;2073687;28;20034;-70
2023/09/04 03:44:30;;;;;;;4.05;3.25;;;;;;;;;;2073553;28;21108;-71
2023/09/04 03:45:49;;;;;;;10.50;3.45;;;;;;;;;;2074334;28;20506;-67
2023/09/04 03:47:09;;;;;;;6.38;3.00;;;;;;;;;;2074565;28;20356;-70
2023/09/04 03:48:28;;;;;;;3.92;2.90;;;;;;;;;;2073641;28;20026;-71
2023/09/04 03:49:47;;;;;;;4.88;2.80;;;;;;;;;;2079511;28;20478;-71
2023/09/04 03:51:06;;;;;;;3.72;3.03;;;;;;;;;;2078438;28;20471;-71
2023/09/04 03:52:25;;;;;;;8.65;3.42;;;;;;;;;;2067866;28;20455;-71
2023/09/04 03:53:44;;;;;;;5.22;2.80;;;;;;;;;;2075211;28;20088;-69
2023/09/04 03:55:03;;;;;;;7.95;3.25;;;;;;;;;;2076493;28;20034;-71
2023/09/04 03:56:22;;;;;;;3.28;2.72;;;;;;;;;;2075447;28;20029;-71
2023/09/04 03:57:46;;;;;;;6.97;3.20;;;;;;;;;;2073291;28;20469;-70
2023/09/04 03:59:05;;;;;;;6.65;3.40;;;;;;;;;;2075801;28;20025;-70
2023/09/04 04:00:25;;;;;;;6.22;2.92;;;;;;;;;;2064519;28;20518;-70
2023/09/04 04:01:43;;;;;;;4.50;2.88;;;;;;;;;;2074770;28;20061;-65
2023/09/04 04:03:04;;;;;;;6.28;2.95;;;;;;;;;;2079404;28;20044;-70
2023/09/04 04:04:22;;;;;;;6.38;3.55;;;;;;;;;;2076874;28;20033;-68
2023/09/04 04:05:41;;;;;;;6.47;3.42;;;;;;;;;;2078658;28;20120;-69
2023/09/04 04:07:00;;;;;;;4.93;3.50;;;;;;;;;;2078325;28;20033;-70
2023/09/04 04:08:19;;;;;;;6.68;3.30;;;;;;;;;;2074632;28;20034;-70
2023/09/04 04:09:38;;;;;;;5.20;3.20;;;;;;;;;;2075777;28;20108;-70
2023/09/04 04:10:57;;;;;;;8.23;2.97;;;;;;;;;;2076613;28;20033;-70
2023/09/04 04:12:16;;;;;;;3.70;3.33;;;;;;;;;;2074280;28;20034;-69
2023/09/04 04:13:35;;;;;;;5.38;3.38;;;;;;;;;;2076649;28;20037;-69
2023/09/04 04:14:55;;;;;;;3.85;2.88;;;;;;;;;;2077666;28;20017;-70
2023/09/04 04:16:14;;;;;;;7.10;3.30;;;;;;;;;;2074873;28;20386;-69
2023/09/04 04:17:34;;;;;;;4.70;3.20;;;;;;;;;;2076136;28;20034;-65
2023/09/04 04:18:53;;;;;;;6.20;3.20;;;;;;;;;;2074733;28;20037;-67
2023/09/04 04:20:12;;;;;;;4.28;3.20;;;;;;;;;;2076348;28;20025;-66
2023/09/04 04:21:31;;;;;;;8.40;3.30;;;;;;;;;;2079036;28;20056;-67
2023/09/04 04:22:50;;;;;;;4.57;3.85;;;;;;;;;;2078250;28;20049;-70
2023/09/04 04:24:09;;;;;;;8.32;3.67;;;;;;;;;;2076230;28;20034;-65
2023/09/04 04:25:28;;;;;;;6.63;3.35;;;;;;;;;;2076966;28;20029;-67
2023/09/04 04:26:47;;;;;;;7.47;3.45;;;;;;;;;;2075073;28;20029;-66
2023/09/04 04:28:07;;;;;;;6.03;3.20;;;;;;;;;;2077187;28;20483;-70
2023/09/04 04:29:25;;;;;;;3.88;3.28;;;;;;;;;;2075208;28;20053;-70
2023/09/04 04:30:45;;;;;;;4.88;2.92;;;;;;;;;;2077733;28;20508;-70
2023/09/04 04:32:05;;;;;;;8.10;3.40;;;;;;;;;;2065154;28;20136;-71
2023/09/04 04:33:24;;;;;;;4.22;2.78;;;;;;;;;;2073539;28;20112;-70
2023/09/04 04:34:43;;;;;;;4.93;2.95;;;;;;;;;;2071583;28;20033;-70
2023/09/04 04:36:03;;;;;;;8.65;3.33;;;;;;;;;;2076212;28;20148;-67
2023/09/04 04:37:22;;;;;;;6.82;3.70;;;;;;;;;;2077403;28;20029;-71
2023/09/04 04:38:41;;;;;;;6.28;2.78;;;;;;;;;;2075073;28;20070;-67
2023/09/04 04:40:01;;;;;;;5.05;3.05;;;;;;;;;;2074428;28;20109;-68
2023/09/04 04:41:20;;;;;;;5.32;3.22;;;;;;;;;;2075867;28;20037;-69
2023/09/04 04:42:39;;;;;;;7.35;3.50;;;;;;;;;;2077304;28;20117;-70
2023/09/04 04:43:58;;;;;;;7.95;3.60;;;;;;;;;;2076630;28;20664;-70
2023/09/04 04:45:17;;;;;;;6.75;3.40;;;;;;;;;;2078272;28;20030;-70
2023/09/04 04:46:36;;;;;;;5.32;3.30;;;;;;;;;;2074506;28;20026;-69
2023/09/04 04:47:55;;;;;;;8.25;3.80;;;;;;;;;;2074415;28;20033;-72
2023/09/04 04:49:15;;;;;;;8.45;3.42;;;;;;;;;;2077717;28;20041;-71
2023/09/04 04:50:34;;;;;;;5.72;3.05;;;;;;;;;;2075488;28;20026;-70
2023/09/04 04:51:56;;;;;;;4.68;3.38;;;;;;;;;;2075268;28;20037;-73
2023/09/04 04:53:16;;;;;;;10.07;3.67;;;;;;;;;;2080076;28;20433;-73
2023/09/04 04:54:35;;;;;;;5.68;3.40;;;;;;;;;;2078508;28;20274;-74
2023/09/04 04:55:54;;;;;;;5.45;3.55;;;;;;;;;;2068626;28;20033;-72
2023/09/04 04:57:13;;;;;;;12.05;3.58;;;;;;;;;;2073990;28;20030;-66
2023/09/04 04:58:32;;;;;;;4.85;3.20;;;;;;;;;;2077173;28;20072;-72
2023/09/04 04:59:51;;;;;;;7.22;3.17;;;;;;;;;;2073056;28;20034;-72
2023/09/04 05:01:09;;;;;;;6.70;3.50;;;;;;;;;;2076901;28;20033;-71
2023/09/04 05:02:28;;;;;;;4.55;3.72;;;;;;;;;;2070863;28;20659;-73
2023/09/04 05:03:47;;;;;;;6.70;3.08;;;;;;;;;;2078013;28;20029;-71
2023/09/04 05:05:07;;;;;;;5.15;3.60;;;;;;;;;;2078504;28;20490;-70
2023/09/04 05:06:26;;;;;;;4.07;3.50;;;;;;;;;;2068417;28;20450;-70
2023/09/04 05:07:45;;;;;;;5.07;3.17;;;;;;;;;;2073867;28;20105;-73
2023/09/04 05:09:05;;;;;;;7.85;3.58;;;;;;;;;;2077427;28;20033;-70
2023/09/04 05:10:24;;;;;;;5.45;3.63;;;;;;;;;;2071342;28;20403;-73
2023/09/04 05:11:43;;;;;;;5.88;3.40;;;;;;;;;;2074124;28;20029;-69
2023/09/04 05:13:02;;;;;;;6.75;3.45;;;;;;;;;;2077548;28;20409;-72
2023/09/04 05:14:21;;;;;;;4.80;3.30;;;;;;;;;;2074687;28;20033;-73
2023/09/04 05:15:40;;;;;;;6.88;3.33;;;;;;;;;;2068243;28;20033;-70
2023/09/04 05:16:59;;;;;;;9.18;3.80;;;;;;;;;;2072686;28;20029;-72
2023/09/04 05:18:18;;;;;;;7.50;3.25;;;;;;;;;;2072945;28;20394;-72
2023/09/04 05:19:37;;;;;;;8.55;4.10;;;;;;;;;;2075548;28;20038;-71
2023/09/04 05:20:56;;;;;;;7.10;3.85;;;;;;;;;;2073775;28;20029;-73
2023/09/04 05:22:15;;;;;;;6.05;3.58;;;;;;;;;;2074600;28;20684;-74
2023/09/04 05:23:34;;;;;;;3.78;3.28;;;;;;;;;;2074144;28;20067;-67
2023/09/04 05:24:53;;;;;;;5.80;3.72;;;;;;;;;;2073429;28;20041;-71
2023/09/04 05:26:12;;;;;;;5.70;3.85;;;;;;;;;;2074112;28;20482;-73
2023/09/04 05:27:31;;;;;;;7.85;3.85;;;;;;;;;;2073916;28;20045;-71
2023/09/04 05:28:50;;;;;;;7.30;3.47;;;;;;;;;;2071758;28;20075;-71
2023/09/04 05:30:09;;;;;;;7.80;3.53;;;;;;;;;;2070406;28;20589;-73
2023/09/04 05:31:28;;;;;;;12.30;3.65;;;;;;;;;;2073325;28;20026;-71
2023/09/04 05:32:50;;;;;;;6.25;3.35;;;;;;;;;;2063958;28;20123;-73
2023/09/04 05:34:09;;;;;;;6.18;3.80;;;;;;;;;;2068452;28;20022;-73
2023/09/04 05:35:28;;;;;;;7.07;3.60;;;;;;;;;;2075438;28;20033;-72
2023/09/04 05:36:47;;;;;;;6.40;3.60;;;;;;;;;;2075628;28;20036;-73
2023/09/04 05:38:07;;;;;;;8.40;3.40;;;;;;;;;;2066465;28;20034;-74
2023/09/04 05:39:26;;;;;;;8.52;3.45;;;;;;;;;;2071430;28;20022;-71
2023/09/04 05:40:48;;;;;;;7.00;3.67;;;;;;;;;;2077937;28;20495;-72
2023/09/04 05:42:07;;;;;;;6.70;3.92;;;;;;;;;;2076752;28;20030;-71
2023/09/04 05:43:26;;;;;;;9.63;4.32;;;;;;;;;;2078471;28;20025;-73
2023/09/04 05:44:45;;;;;;;8.02;3.40;;;;;;;;;;2074441;28;20037;-70
2023/09/04 05:46:04;;;;;;;6.38;3.92;;;;;;;;;;2064922;28;20034;-73
2023/09/04 05:47:23;;;;;;;8.25;4.00;;;;;;;;;;2067471;28;20037;-72
2023/09/04 05:48:42;;;;;;;7.75;3.83;;;;;;;;;;2076131;28;20033;-74
2023/09/04 05:50:01;;;;;;;5.88;3.60;;;;;;;;;;2074298;28;20104;-68
2023/09/04 05:51:20;;;;;;;11.38;4.03;;;;;;;;;;2076764;28;20117;-73
2023/09/04 05:52:39;;;;;;;6.95;4.28;;;;;;;;;;2071848;28;20495;-68
2023/09/04 05:53:59;;;;;;;5.03;4.18;;;;;;;;;;2074192;28;20029;-74
2023/09/04 05:55:18;;;;;;;7.55;3.40;;;;;;;;;;2074071;28;20438;-73
2023/09/04 05:56:36;;;;;;;5.82;3.60;;;;;;;;;;2075564;28;20064;-75
2023/09/04 05:57:55;;;;;;;8.07;3.63;;;;;;;;;;2069135;28;20026;-70
2023/09/04 05:59:14;;;;;;;5.32;3.33;;;;;;;;;;2071463;28;20026;-72
2023/09/04 06:00:33;;;;;;;7.20;4.07;;;;;;;;;;2076617;28;20017;-73
2023/09/04 06:01:52;;;;;;;5.05;3.30;;;;;;;;;;2073409;28;20025;-74
2023/09/04 06:03:11;;;;;;;6.25;3.38;;;;;;;;;;2077737;28;20634;-72
2023/09/04 06:04:30;;;;;;;6.07;3.92;;;;;;;;;;2078416;28;20037;-73
2023/09/04 06:05:49;;;;;;;3.95;3.50;;;;;;;;;;2073980;28;20139;-73
2023/09/04 06:07:10;;;;;;;8.90;3.88;;;;;;;;;;2073327;28;20037;-72
2023/09/04 06:08:30;;;;;;;7.57;3.90;;;;;;;;;;2077897;28;20038;-74
2023/09/04 06:09:49;;;;;;;5.05;3.30;;;;;;;;;;2076556;28;20033;-70
2023/09/04 06:11:08;;;;;;;5.47;3.65;;;;;;;;;;2077883;28;20117;-74
2023/09/04 06:12:27;;;;;;;13.07;4.07;;;;;;;;;;2074957;28;20080;-68
2023/09/04 06:13:46;;;;;;;6.82;3.70;;;;;;;;;;2079591;28;20034;-73
2023/09/04 06:15:06;;;;;;;6.90;3.75;;;;;;;;;;2075646;28;20026;-74
2023/09/04 06:16:25;;;;;;;6.20;3.90;;;;;;;;;;2078385;28;21017;-73
2023/09/04 06:17:44;;;;;;;6.25;3.28;;;;;;;;;;2080118;28;20030;-73
2023/09/04 06:19:03;;;;;;;7.97;3.72;;;;;;;;;;2077930;28;20018;-72
2023/09/04 06:20:22;;;;;;;9.13;3.60;;;;;;;;;;2079194;28;20034;-73
2023/09/04 06:21:41;;;;;;;8.63;3.95;;;;;;;;;;2079341;28;20041;-73
2023/09/04 06:23:01;;;;;;;9.30;4.20;;;;;;;;;;2079530;28;20088;-72
2023/09/04 06:24:20;;;;;;;6.03;3.28;;;;;;;;;;2077527;28;20485;-73
2023/09/04 06:25:42;;;;;;;4.88;3.13;;;;;;;;;;2072216;28;20498;-73
2023/09/04 06:27:01;;;;;;;9.50;3.95;;;;;;;;;;2074388;28;20057;-73
2023/09/04 06:28:21;;;;;;;12.13;3.88;;;;;;;;;;2080573;28;20038;-73
2023/09/04 06:29:40;;;;;;;8.75;3.67;;;;;;;;;;2081144;28;20401;-73
2023/09/04 06:30:59;;;;;;;6.50;4.13;;;;;;;;;;2078430;28;21823;-73
2023/09/04 06:32:19;;;;;;;10.30;4.03;;;;;;;;;;2079867;28;20402;-73
2023/09/04 06:33:38;;;;;;;9.48;3.70;;;;;;;;;;2078716;28;20037;-69
2023/09/04 06:34:57;;;;;;;6.75;3.72;;;;;;;;;;2072721;28;20042;-73
2023/09/04 06:36:16;;;;;;;8.95;3.72;;;;;;;;;;2071434;28;20029;-72
2023/09/04 06:37:34;;;;;;;5.88;3.80;;;;;;;;;;2071955;28;20386;-73
2023/09/04 06:38:53;;;;;;;3.97;3.47;;;;;;;;;;2077957;28;20033;-73
2023/09/04 06:40:13;;;;;;;8.00;3.38;;;;;;;;;;2080942;28;20482;-72
2023/09/04 06:41:32;;;;;;;10.30;3.85;;;;;;;;;;2078999;28;20398;-73
2023/09/04 06:42:54;;;;;;;8.27;3.47;;;;;;;;;;2079353;28;20022;-72
2023/09/04 06:44:13;;;;;;;9.70;3.35;;;;;;;;;;2080130;28;20048;-73
2023/09/04 06:45:32;;;;;;;9.32;3.58;;;;;;;;;;2080603;28;20037;-69
2023/09/04 06:46:51;;;;;;;7.50;3.95;;;;;;;;;;2080062;28;20033;-72
2023/09/04 06:48:10;;;;;;;9.75;3.55;;;;;;;;;;2080640;28;20053;-68
2023/09/04 06:49:29;;;;;;;6.88;3.75;;;;;;;;;;2081195;28;20033;-73
2023/09/04 06:50:49;;;;;;;5.20;3.60;;;;;;;;;;2077889;28;20029;-65
2023/09/04 06:52:08;;;;;;;8.30;4.00;;;;;;;;;;2080833;28;20108;-73
2023/09/04 06:53:27;;;;;;;5.60;3.35;;;;;;;;;;2081839;28;20109;-69
2023/09/04 06:54:46;;;;;;;4.22;2.97;;;;;;;;;;2078938;28;20045;-70
2023/09/04 06:56:05;;;;;;;5.00;3.38;;;;;;;;;;2079092;28;20033;-71
2023/09/04 06:57:24;;;;;;;10.27;3.45;;;;;;;;;;2072924;28;20053;-67
2023/09/04 06:58:43;;;;;;;8.75;3.42;;;;;;;;;;2078803;28;20033;-72
2023/09/04 07:00:06;;;;;;;6.40;3.38;;;;;;;;;;2078439;28;20033;-72
2023/09/04 07:01:25;;;;;;;5.18;3.00;;;;;;;;;;2078804;28;20473;-73
2023/09/04 07:02:44;;;;;;;6.38;3.58;;;;;;;;;;2078578;28;20119;-72
2023/09/04 07:04:03;;;;;;;5.65;3.35;;;;;;;;;;2080999;28;20069;-73
2023/09/04 07:05:23;;;;;;;7.75;3.08;;;;;;;;;;2079574;28;20026;-71
2023/09/04 07:06:42;;;;;;;6.88;3.30;;;;;;;;;;2066446;28;20033;-73
2023/09/04 07:08:01;;;;;;;9.23;3.58;;;;;;;;;;2076792;28;20041;-73
2023/09/04 07:09:20;;;;;;;6.72;3.10;;;;;;;;;;2082268;28;20033;-72
2023/09/04 07:10:39;;;;;;;11.80;3.78;;;;;;;;;;2081681;28;20427;-73
2023/09/04 07:11:58;;;;;;;6.45;3.47;;;;;;;;;;2079638;28;20042;-68
2023/09/04 07:13:18;;;;;;;5.88;3.08;;;;;;;;;;2080972;28;20106;-74
2023/09/04 07:14:38;;;;;;;7.05;3.08;;;;;;;;;;2078744;28;20068;-68
2023/09/04 07:15:57;;;;;;;7.97;3.40;;;;;;;;;;2080570;28;20026;-73
2023/09/04 07:17:16;;;;;;;8.85;3.63;;;;;;;;;;2080983;28;20441;-73
2023/09/04 07:18:37;;;;;;;5.13;3.25;;;;;;;;;;2078967;28;20558;-72
2023/09/04 07:19:56;;;;;;;5.47;3.30;;;;;;;;;;2076274;28;20111;-70
2023/09/04 07:21:15;;;;;;;8.30;2.92;;;;;;;;;;2080365;28;20537;-69
2023/09/04 07:22:34;;;;;;;6.03;2.95;;;;;;;;;;2079814;28;20053;-73
2023/09/04 07:23:53;;;;;;;4.40;3.10;;;;;;;;;;2079926;28;20033;-73
2023/09/04 07:25:12;;;;;;;3.55;2.65;;;;;;;;;;2079420;28;20479;-71
2023/09/04 07:26:30;;;;;;;3.17;2.55;;;;;;;;;;2076522;28;20047;-72
2023/09/04 07:27:49;;;;;;;4.88;2.67;;;;;;;;;;2076137;28;20378;-67
2023/09/04 07:29:08;;;;;;;4.85;2.70;;;;;;;;;;2075149;28;21392;-72
2023/09/04 07:30:27;;;;;;;4.97;2.67;;;;;;;;;;2078403;28;20029;-74
2023/09/04 07:31:46;;;;;;;6.13;2.80;;;;;;;;;;2075757;28;20022;-70
2023/09/04 07:33:05;;;;;;;4.78;3.17;;;;;;;;;;2077138;28;20025;-70
2023/09/04 07:34:24;;;;;;;6.22;3.03;;;;;;;;;;2079092;28;20033;-73
2023/09/04 07:35:43;;;;;;;8.63;2.63;;;;;;;;;;2077038;28;20033;-71
2023/09/04 07:37:02;;;;;;;6.00;2.67;;;;;;;;;;2078777;28;20033;-67
2023/09/04 07:38:21;;;;;;;7.30;2.88;;;;;;;;;;2081110;28;20025;-69
2023/09/04 07:39:40;;;;;;;3.63;2.30;;;;;;;;;;2072392;28;20317;-73
2023/09/04 07:41:03;;;;;;;4.18;3.10;;;;;;;;;;2074358;28;20029;-73
2023/09/04 07:42:23;;;;;;;5.53;2.40;;;;;;;;;;2074944;28;20030;-67
2023/09/04 07:43:42;;;;;;;4.07;2.90;;;;;;;;;;2078893;28;20379;-73
2023/09/04 07:45:01;;;;;;;4.13;2.58;;;;;;;;;;2079723;28;20407;-73
2023/09/04 07:46:20;;;;;;;5.22;2.40;;;;;;;;;;2078752;28;20037;-73
2023/09/04 07:47:39;;;;;;;5.60;2.50;;;;;;;;;;2077428;28;20487;-73
2023/09/04 07:48:58;;;;;;;7.00;2.97;;;;;;;;;;2073976;28;20562;-73
2023/09/04 07:50:17;;;;;;;5.57;2.38;;;;;;;;;;2077000;28;20759;-75
2023/09/04 07:51:36;;;;;;;5.68;2.50;;;;;;;;;;2076866;28;20021;-70
2023/09/04 07:52:55;;;;;;;2.90;2.20;;;;;;;;;;2075911;28;20030;-68
2023/09/04 07:54:14;;;;;;;5.13;2.55;;;;;;;;;;2077196;28;20030;-71
2023/09/04 07:55:33;;;;;;;4.75;2.63;;;;;;;;;;2077387;28;20113;-72
2023/09/04 07:56:52;;;;;;;6.47;2.58;;;;;;;;;;2074403;28;20029;-72